Sunday, January 20, 2019, 2:13 AM EST
Back to Local

KIZG, Fryeburg Eastern Slopes Rgnl

Location: Fryeburg, ME, United States Lat: 43.983
Local Time: 2:13 AM EST ( 7:13 GMT) Lon: -70.95
Time Zone: US/Eastern Elev: 452 ft

Show me the last for .
Show Coded

Time T Td Feel RH Dir Speed Gust Alt SLP Vis Weather Sky Remarks
2019-01-20 02:01 9 5 -3 83 20° 8 - 30.14 - 2 -SN BR OVC018 1-hr Precip Total: Trace
2019-01-20 01:54 10 6 -3 83 30° 9 - 30.14 30.17 1 -SN BR OVC016 1-hr Precip Total: 0.01"
2019-01-20 01:39 10 6 -1 83 20° 7 - 30.16 - 1 -SN BR OVC016 1-hr Precip Total: 0.01"
2019-01-20 01:19 10 6 -3 83 10° 9 - 30.17 - 2 -SN BR OVC017 1-hr Precip Total: Trace
2019-01-20 01:08 10 7 -2 87 10° 8 - 30.18 - 1 -SN BR OVC015 1-hr Precip Total: Trace
2019-01-20 01:01 10 7 -1 87 10° 7 - 30.19 - 1 -SN BR OVC013 1-hr Precip Total: Trace
2019-01-20 00:54 10 7 -1 87 10° 7 - 30.20 30.23 1 -SN BR OVC013 1-hr Precip Total: 0.02"
6-hr Precip Total (1am): 0.04"
6-hr Min Temp (1am): 10.0°F
6-hr Max Temp (1am): 15.1°F
2019-01-20 00:08 10 7 0 87 20° 6 - 30.22 - 1 -SN BR VV010 1-hr Precip Total: Trace
2019-01-20 00:01 10 7 0 87 30° 6 - 30.22 - 1 -SN BR VV009 1-hr Precip Total: Trace
2019-01-19 23:54 10 7 2 87 360° 5 - 30.23 30.26 1 -SN BR VV010 1-hr Precip Total: 0.01"
24-hr Min Temp (12am): 8.1°F
24-hr Max Temp (12am): 28.9°F
2019-01-19 23:34 10 6 0 83 10° 6 - 30.24 - 1 -SN BR OVC012 1-hr Precip Total: Trace
2019-01-19 23:02 11 7 -1 83 360° 8 - 30.25 - 1 -SN BR OVC012 1-hr Precip Total: Trace
2019-01-19 22:54 11 7 1 83 360° 6 - 30.25 30.28 1 -SN BR OVC014 1-hr Precip Total: 0.01"
2019-01-19 22:47 11 7 1 83 10° 6 - 30.26 - 1 -SN BR OVC014 1-hr Precip Total: 0.01"
2019-01-19 22:24 11 8 3 87 10° 5 - 30.27 - 2 -SN BR OVC018 1-hr Precip Total: 0.01"
2019-01-19 22:12 12 8 6 83 20° 3 - 30.27 - 1 -SN BR OVC018 1-hr Precip Total: 0.01"
2019-01-19 21:54 11 8 3 87 100° 5 - 30.28 30.30 2 -SN BR OVC022 1-hr Precip Total: Trace
6-hr Precip Total (10pm): 0.00"
2019-01-19 21:43 11 7 -1 83 110° 8 - 30.28 - 3 -SN BR OVC022 1-hr Precip Total: Trace
2019-01-19 20:54 12 9 2 87 110° 7 - 30.30 30.32 2 -SN BR OVC026 1-hr Precip Total: Trace
2019-01-19 20:33 13 9 4 83 90° 6 - 30.30 - 2 -SN BR OVC028 1-hr Precip Total: Trace
2019-01-19 20:24 13 8 3 80 90° 7 - 30.30 - 3 -SN OVC027 1-hr Precip Total: Trace
2019-01-19 20:12 13 9 3 83 70° 7 - 30.30 - 2 -SN BR FEW014 OVC025 1-hr Precip Total: Trace
2019-01-19 19:54 14 10 6 83 60° 5 - 30.30 30.33 1 -SN BR OVC019 1-hr Precip Total: Trace
2019-01-19 19:49 14 10 6 85 60° 5 - 30.30 - 1 -SN BR OVC019 1-hr Precip Total: Trace
2019-01-19 19:28 14 10 6 83 20° 5 - 30.29 - 2 -SN BR OVC029 1-hr Precip Total: Trace
2019-01-19 19:20 14 10 4 83 20° 7 - 30.29 - 2 -SN BR OVC030 1-hr Precip Total: Trace
2019-01-19 18:54 15 8 4 73 60° 8 - 30.28 30.32 6 -SN OVC032 1-hr Precip Total: Trace
6-hr Precip Total (7pm): 0.00"
6-hr Min Temp (7pm): 15.1°F
6-hr Max Temp (7pm): 21.0°F
2019-01-19 17:54 15 11 6 83 10° 6 - 30.29 30.32 8 -SN OVC040 1-hr Precip Total: Trace
2019-01-19 16:54 18 4 11 53 20° 5 - 30.29 30.32 10 OVC048 None
2019-01-19 15:54 19 5 - 53 - Calm - 30.28 30.31 10 BKN055 OVC070 None
2019-01-19 14:54 20 4 12 49 80° 6 - 30.26 30.28 10 BKN042 BKN055 OVC070 None
2019-01-19 13:54 21 6 11 51 90° 9 - 30.24 30.26 10 BKN085 None
2019-01-19 12:54 21 7 11 53 50° 8 - 30.25 30.28 10 OVC100 6-hr Min Temp (1pm): 9.0°F
6-hr Max Temp (1pm): 21.0°F
2019-01-19 11:54 21 7 15 53 140° 5 - 30.29 30.31 10 FEW070 BKN110 None
2019-01-19 10:54 20 8 13 59 110° 5 - 30.30 30.32 10 OVC095 None
2019-01-19 09:54 18 7 13 61 Variable 3 - 30.29 30.32 10 OVC100 None
2019-01-19 08:54 16 8 9 70 110° 5 - 30.29 30.31 10 OVC120 None
2019-01-19 07:54 12 6 - 76 - Calm - 30.26 30.29 10 CLR None
2019-01-19 06:54 8 5 - 86 - Calm - 30.24 30.27 10 CLR 6-hr Min Temp (7am): 8.1°F
6-hr Max Temp (7am): 28.0°F
2019-01-19 05:54 12 6 - 76 - Calm - 30.21 30.24 10 CLR None
2019-01-19 04:54 19 6 14 56 310° 3 - 30.19 30.21 10 CLR None
2019-01-19 03:54 21 7 11 53 320° 8 - 30.18 30.20 10 CLR None
2019-01-19 02:54 23 8 17 52 Variable 5 - 30.15 30.17 10 CLR None

Support USWX by starting your Amazon purchase here.